sensor_id;sensor_type;location;lat;lon;timestamp;P1;durP1;ratioP1;P2;durP2;ratioP2
19002;SDS011;9634;51.040;13.794;2022-12-29T00:00:19;2.00;;;1.37;;
19002;SDS011;9634;51.040;13.794;2022-12-29T00:05:23;3.10;;;1.43;;
19002;SDS011;9634;51.040;13.794;2022-12-29T00:10:26;3.07;;;1.47;;
19002;SDS011;9634;51.040;13.794;2022-12-29T00:15:29;3.50;;;1.10;;
19002;SDS011;9634;51.040;13.794;2022-12-29T00:20:40;1.30;;;0.90;;
19002;SDS011;9634;51.040;13.794;2022-12-29T00:26:03;2.37;;;0.90;;
19002;SDS011;9634;51.040;13.794;2022-12-29T00:31:28;2.80;;;0.70;;
19002;SDS011;9634;51.040;13.794;2022-12-29T00:36:47;1.97;;;0.90;;
19002;SDS011;9634;51.040;13.794;2022-12-29T00:41:51;1.63;;;0.70;;
19002;SDS011;9634;51.040;13.794;2022-12-29T00:47:10;2.43;;;1.00;;
19002;SDS011;9634;51.040;13.794;2022-12-29T00:52:12;2.10;;;0.80;;
19002;SDS011;9634;51.040;13.794;2022-12-29T00:57:16;3.00;;;0.90;;
19002;SDS011;9634;51.040;13.794;2022-12-29T01:02:18;2.30;;;0.80;;
19002;SDS011;9634;51.040;13.794;2022-12-29T01:07:20;2.90;;;1.13;;
19002;SDS011;9634;51.040;13.794;2022-12-29T01:12:24;1.60;;;0.83;;
19002;SDS011;9634;51.040;13.794;2022-12-29T01:17:56;1.40;;;0.90;;
19002;SDS011;9634;51.040;13.794;2022-12-29T01:22:59;1.30;;;0.87;;
19002;SDS011;9634;51.040;13.794;2022-12-29T01:28:01;3.80;;;1.10;;
19002;SDS011;9634;51.040;13.794;2022-12-29T01:33:08;2.53;;;1.40;;
19002;SDS011;9634;51.040;13.794;2022-12-29T01:38:13;1.60;;;1.00;;
19002;SDS011;9634;51.040;13.794;2022-12-29T01:43:16;2.00;;;1.33;;
19002;SDS011;9634;51.040;13.794;2022-12-29T01:48:21;2.20;;;1.40;;
19002;SDS011;9634;51.040;13.794;2022-12-29T01:53:24;2.90;;;1.43;;
19002;SDS011;9634;51.040;13.794;2022-12-29T01:58:32;2.20;;;1.40;;
19002;SDS011;9634;51.040;13.794;2022-12-29T02:03:43;3.00;;;1.33;;
19002;SDS011;9634;51.040;13.794;2022-12-29T02:08:45;2.50;;;1.23;;
19002;SDS011;9634;51.040;13.794;2022-12-29T02:13:48;2.27;;;1.43;;
19002;SDS011;9634;51.040;13.794;2022-12-29T02:18:54;3.70;;;1.30;;
19002;SDS011;9634;51.040;13.794;2022-12-29T02:24:10;2.37;;;1.50;;
19002;SDS011;9634;51.040;13.794;2022-12-29T02:29:46;2.93;;;1.67;;
19002;SDS011;9634;51.040;13.794;2022-12-29T02:35:08;3.30;;;1.60;;
19002;SDS011;9634;51.040;13.794;2022-12-29T02:40:22;3.07;;;1.27;;
19002;SDS011;9634;51.040;13.794;2022-12-29T02:45:30;2.27;;;1.40;;
19002;SDS011;9634;51.040;13.794;2022-12-29T02:50:40;2.27;;;1.30;;
19002;SDS011;9634;51.040;13.794;2022-12-29T02:55:49;2.70;;;1.33;;
19002;SDS011;9634;51.040;13.794;2022-12-29T03:00:55;3.10;;;1.33;;
19002;SDS011;9634;51.040;13.794;2022-12-29T03:06:25;2.53;;;1.40;;
19002;SDS011;9634;51.040;13.794;2022-12-29T03:11:37;2.57;;;1.10;;
19002;SDS011;9634;51.040;13.794;2022-12-29T03:17:07;4.77;;;1.57;;
19002;SDS011;9634;51.040;13.794;2022-12-29T03:22:17;3.33;;;1.27;;
19002;SDS011;9634;51.040;13.794;2022-12-29T03:27:34;2.20;;;1.40;;
19002;SDS011;9634;51.040;13.794;2022-12-29T03:32:42;1.90;;;1.23;;
19002;SDS011;9634;51.040;13.794;2022-12-29T03:37:51;3.00;;;1.60;;
19002;SDS011;9634;51.040;13.794;2022-12-29T03:42:59;5.03;;;1.47;;
19002;SDS011;9634;51.040;13.794;2022-12-29T03:48:07;2.50;;;1.40;;
19002;SDS011;9634;51.040;13.794;2022-12-29T03:53:15;2.53;;;1.37;;
19002;SDS011;9634;51.040;13.794;2022-12-29T03:58:17;3.73;;;1.40;;
19002;SDS011;9634;51.040;13.794;2022-12-29T04:03:43;2.23;;;1.30;;
19002;SDS011;9634;51.040;13.794;2022-12-29T04:08:47;2.43;;;1.10;;
19002;SDS011;9634;51.040;13.794;2022-12-29T04:13:50;2.67;;;1.50;;
19002;SDS011;9634;51.040;13.794;2022-12-29T04:18:57;2.37;;;1.57;;
19002;SDS011;9634;51.040;13.794;2022-12-29T04:24:01;2.43;;;1.30;;
19002;SDS011;9634;51.040;13.794;2022-12-29T04:29:08;3.63;;;1.40;;
19002;SDS011;9634;51.040;13.794;2022-12-29T04:34:20;6.57;;;1.47;;
19002;SDS011;9634;51.040;13.794;2022-12-29T04:39:24;3.63;;;1.40;;
19002;SDS011;9634;51.040;13.794;2022-12-29T04:44:27;6.33;;;1.40;;
19002;SDS011;9634;51.040;13.794;2022-12-29T04:49:32;5.60;;;1.80;;
19002;SDS011;9634;51.040;13.794;2022-12-29T04:54:57;1.83;;;1.07;;
19002;SDS011;9634;51.040;13.794;2022-12-29T04:59:59;6.30;;;2.97;;
19002;SDS011;9634;51.040;13.794;2022-12-29T05:05:03;1.77;;;1.07;;
19002;SDS011;9634;51.040;13.794;2022-12-29T05:10:10;1.90;;;1.00;;
19002;SDS011;9634;51.040;13.794;2022-12-29T05:15:13;2.60;;;0.93;;
19002;SDS011;9634;51.040;13.794;2022-12-29T05:20:17;2.77;;;1.27;;
19002;SDS011;9634;51.040;13.794;2022-12-29T05:25:21;2.00;;;1.30;;
19002;SDS011;9634;51.040;13.794;2022-12-29T05:30:35;1.97;;;1.20;;
19002;SDS011;9634;51.040;13.794;2022-12-29T05:35:38;2.87;;;1.00;;
19002;SDS011;9634;51.040;13.794;2022-12-29T05:40:43;2.17;;;1.20;;
19002;SDS011;9634;51.040;13.794;2022-12-29T05:46:06;4.13;;;1.33;;
19002;SDS011;9634;51.040;13.794;2022-12-29T05:51:21;1.70;;;1.17;;
19002;SDS011;9634;51.040;13.794;2022-12-29T05:56:28;3.40;;;1.13;;
19002;SDS011;9634;51.040;13.794;2022-12-29T06:01:32;2.87;;;1.30;;
19002;SDS011;9634;51.040;13.794;2022-12-29T06:06:36;2.30;;;1.30;;
19002;SDS011;9634;51.040;13.794;2022-12-29T06:11:44;3.33;;;1.20;;
19002;SDS011;9634;51.040;13.794;2022-12-29T06:16:46;2.50;;;1.07;;
19002;SDS011;9634;51.040;13.794;2022-12-29T06:21:49;2.73;;;1.10;;
19002;SDS011;9634;51.040;13.794;2022-12-29T06:26:55;1.93;;;0.90;;
19002;SDS011;9634;51.040;13.794;2022-12-29T06:31:57;2.83;;;1.30;;
19002;SDS011;9634;51.040;13.794;2022-12-29T06:37:03;2.73;;;1.30;;
19002;SDS011;9634;51.040;13.794;2022-12-29T06:42:07;1.83;;;1.17;;
19002;SDS011;9634;51.040;13.794;2022-12-29T06:47:29;3.27;;;1.20;;
19002;SDS011;9634;51.040;13.794;2022-12-29T06:52:32;1.87;;;1.40;;
19002;SDS011;9634;51.040;13.794;2022-12-29T06:57:36;4.60;;;1.20;;
19002;SDS011;9634;51.040;13.794;2022-12-29T07:02:38;2.57;;;1.50;;
19002;SDS011;9634;51.040;13.794;2022-12-29T07:07:41;2.53;;;1.00;;
19002;SDS011;9634;51.040;13.794;2022-12-29T07:12:45;2.73;;;1.20;;
19002;SDS011;9634;51.040;13.794;2022-12-29T07:17:47;2.93;;;1.60;;
19002;SDS011;9634;51.040;13.794;2022-12-29T07:22:51;2.37;;;1.00;;
19002;SDS011;9634;51.040;13.794;2022-12-29T07:27:55;3.10;;;1.17;;
19002;SDS011;9634;51.040;13.794;2022-12-29T07:33:00;1.37;;;1.07;;
19002;SDS011;9634;51.040;13.794;2022-12-29T07:38:03;3.73;;;1.20;;
19002;SDS011;9634;51.040;13.794;2022-12-29T07:43:07;3.60;;;1.37;;
19002;SDS011;9634;51.040;13.794;2022-12-29T07:48:26;1.93;;;1.30;;
19002;SDS011;9634;51.040;13.794;2022-12-29T07:53:28;2.50;;;1.40;;
19002;SDS011;9634;51.040;13.794;2022-12-29T07:58:33;4.23;;;2.30;;
19002;SDS011;9634;51.040;13.794;2022-12-29T08:03:35;2.43;;;1.50;;
19002;SDS011;9634;51.040;13.794;2022-12-29T08:08:38;2.00;;;1.40;;
19002;SDS011;9634;51.040;13.794;2022-12-29T08:13:42;4.10;;;1.70;;
19002;SDS011;9634;51.040;13.794;2022-12-29T08:18:45;5.90;;;1.73;;
19002;SDS011;9634;51.040;13.794;2022-12-29T08:23:48;4.43;;;1.63;;
19002;SDS011;9634;51.040;13.794;2022-12-29T08:28:53;3.00;;;1.70;;
19002;SDS011;9634;51.040;13.794;2022-12-29T08:33:56;2.73;;;1.30;;
19002;SDS011;9634;51.040;13.794;2022-12-29T08:39:00;5.00;;;1.50;;
19002;SDS011;9634;51.040;13.794;2022-12-29T08:44:04;2.60;;;1.43;;
19002;SDS011;9634;51.040;13.794;2022-12-29T08:49:07;2.83;;;1.50;;
19002;SDS011;9634;51.040;13.794;2022-12-29T08:54:10;2.57;;;1.50;;
19002;SDS011;9634;51.040;13.794;2022-12-29T08:59:15;2.30;;;1.30;;
19002;SDS011;9634;51.040;13.794;2022-12-29T09:04:21;2.80;;;1.13;;
19002;SDS011;9634;51.040;13.794;2022-12-29T09:09:24;3.37;;;1.37;;
19002;SDS011;9634;51.040;13.794;2022-12-29T09:14:29;2.70;;;0.80;;
19002;SDS011;9634;51.040;13.794;2022-12-29T09:19:31;1.87;;;0.80;;
19002;SDS011;9634;51.040;13.794;2022-12-29T09:24:34;2.10;;;1.00;;
19002;SDS011;9634;51.040;13.794;2022-12-29T09:29:38;2.13;;;1.37;;
19002;SDS011;9634;51.040;13.794;2022-12-29T09:34:41;1.40;;;0.77;;
19002;SDS011;9634;51.040;13.794;2022-12-29T09:39:43;1.90;;;0.87;;
19002;SDS011;9634;51.040;13.794;2022-12-29T09:44:54;1.43;;;1.00;;
19002;SDS011;9634;51.040;13.794;2022-12-29T09:50:09;1.47;;;0.70;;
19002;SDS011;9634;51.040;13.794;2022-12-29T09:55:21;1.30;;;0.73;;
19002;SDS011;9634;51.040;13.794;2022-12-29T10:00:32;2.93;;;0.80;;
19002;SDS011;9634;51.040;13.794;2022-12-29T10:05:39;5.40;;;1.30;;
19002;SDS011;9634;51.040;13.794;2022-12-29T10:10:50;0.70;;;0.60;;
19002;SDS011;9634;51.040;13.794;2022-12-29T10:15:59;2.30;;;0.87;;
19002;SDS011;9634;51.040;13.794;2022-12-29T10:21:07;2.87;;;0.60;;
19002;SDS011;9634;51.040;13.794;2022-12-29T10:26:16;1.17;;;0.60;;
19002;SDS011;9634;51.040;13.794;2022-12-29T10:31:22;2.43;;;0.63;;
19002;SDS011;9634;51.040;13.794;2022-12-29T10:36:27;3.53;;;1.03;;
19002;SDS011;9634;51.040;13.794;2022-12-29T10:41:36;0.73;;;0.60;;
19002;SDS011;9634;51.040;13.794;2022-12-29T10:46:44;2.50;;;0.90;;
19002;SDS011;9634;51.040;13.794;2022-12-29T10:51:56;3.03;;;0.90;;
19002;SDS011;9634;51.040;13.794;2022-12-29T10:57:01;1.80;;;0.57;;
19002;SDS011;9634;51.040;13.794;2022-12-29T11:02:22;2.50;;;0.60;;
19002;SDS011;9634;51.040;13.794;2022-12-29T11:07:38;3.40;;;0.93;;
19002;SDS011;9634;51.040;13.794;2022-12-29T11:12:41;1.93;;;0.63;;
19002;SDS011;9634;51.040;13.794;2022-12-29T11:18:01;1.70;;;0.83;;
19002;SDS011;9634;51.040;13.794;2022-12-29T11:23:04;1.03;;;0.70;;
19002;SDS011;9634;51.040;13.794;2022-12-29T11:28:22;2.03;;;0.70;;
19002;SDS011;9634;51.040;13.794;2022-12-29T11:33:31;1.73;;;0.70;;
19002;SDS011;9634;51.040;13.794;2022-12-29T11:38:35;2.40;;;1.10;;
19002;SDS011;9634;51.040;13.794;2022-12-29T11:43:41;2.97;;;0.87;;
19002;SDS011;9634;51.040;13.794;2022-12-29T11:48:49;4.53;;;0.87;;
19002;SDS011;9634;51.040;13.794;2022-12-29T11:53:52;1.93;;;0.87;;
19002;SDS011;9634;51.040;13.794;2022-12-29T11:58:58;3.20;;;1.00;;
19002;SDS011;9634;51.040;13.794;2022-12-29T12:04:34;2.60;;;0.80;;
19002;SDS011;9634;51.040;13.794;2022-12-29T12:09:40;1.10;;;0.80;;
19002;SDS011;9634;51.040;13.794;2022-12-29T12:14:50;5.03;;;1.00;;
19002;SDS011;9634;51.040;13.794;2022-12-29T12:20:22;4.53;;;0.80;;
19002;SDS011;9634;51.040;13.794;2022-12-29T12:25:34;1.33;;;0.60;;
19002;SDS011;9634;51.040;13.794;2022-12-29T12:30:41;3.03;;;0.90;;
19002;SDS011;9634;51.040;13.794;2022-12-29T12:36:04;2.17;;;1.00;;
19002;SDS011;9634;51.040;13.794;2022-12-29T12:41:16;1.13;;;0.80;;
19002;SDS011;9634;51.040;13.794;2022-12-29T12:46:48;2.17;;;0.80;;
19002;SDS011;9634;51.040;13.794;2022-12-29T12:52:14;1.40;;;0.80;;
19002;SDS011;9634;51.040;13.794;2022-12-29T12:57:28;1.83;;;0.93;;
19002;SDS011;9634;51.040;13.794;2022-12-29T13:02:44;1.67;;;0.70;;
19002;SDS011;9634;51.040;13.794;2022-12-29T13:08:04;2.33;;;1.00;;
19002;SDS011;9634;51.040;13.794;2022-12-29T13:19:03;2.40;;;0.90;;
19002;SDS011;9634;51.040;13.794;2022-12-29T13:24:15;3.90;;;0.97;;
19002;SDS011;9634;51.040;13.794;2022-12-29T13:29:29;2.57;;;0.90;;
19002;SDS011;9634;51.040;13.794;2022-12-29T13:34:36;2.67;;;1.00;;
19002;SDS011;9634;51.040;13.794;2022-12-29T13:39:45;2.40;;;0.73;;
19002;SDS011;9634;51.040;13.794;2022-12-29T13:44:51;2.67;;;1.10;;
19002;SDS011;9634;51.040;13.794;2022-12-29T13:49:59;2.20;;;0.80;;
19002;SDS011;9634;51.040;13.794;2022-12-29T13:55:17;4.57;;;1.37;;
19002;SDS011;9634;51.040;13.794;2022-12-29T14:00:27;3.93;;;1.03;;
19002;SDS011;9634;51.040;13.794;2022-12-29T14:05:35;5.57;;;1.27;;
19002;SDS011;9634;51.040;13.794;2022-12-29T14:10:45;1.80;;;0.70;;
19002;SDS011;9634;51.040;13.794;2022-12-29T14:15:50;2.33;;;0.80;;
19002;SDS011;9634;51.040;13.794;2022-12-29T14:20:56;3.50;;;0.90;;
19002;SDS011;9634;51.040;13.794;2022-12-29T14:26:11;4.87;;;1.13;;
19002;SDS011;9634;51.040;13.794;2022-12-29T14:31:34;2.30;;;1.00;;
19002;SDS011;9634;51.040;13.794;2022-12-29T14:36:43;1.90;;;0.97;;
19002;SDS011;9634;51.040;13.794;2022-12-29T14:42:00;2.77;;;1.00;;
19002;SDS011;9634;51.040;13.794;2022-12-29T14:47:05;3.13;;;1.10;;
19002;SDS011;9634;51.040;13.794;2022-12-29T14:52:13;1.60;;;0.80;;
19002;SDS011;9634;51.040;13.794;2022-12-29T14:57:30;2.50;;;1.00;;
19002;SDS011;9634;51.040;13.794;2022-12-29T15:02:37;2.00;;;0.73;;
19002;SDS011;9634;51.040;13.794;2022-12-29T15:07:43;1.63;;;0.70;;
19002;SDS011;9634;51.040;13.794;2022-12-29T15:12:49;1.57;;;0.90;;
19002;SDS011;9634;51.040;13.794;2022-12-29T15:17:57;1.20;;;0.70;;
19002;SDS011;9634;51.040;13.794;2022-12-29T15:23:15;1.80;;;0.70;;
19002;SDS011;9634;51.040;13.794;2022-12-29T15:28:23;1.97;;;1.00;;
19002;SDS011;9634;51.040;13.794;2022-12-29T15:33:26;1.40;;;0.90;;
19002;SDS011;9634;51.040;13.794;2022-12-29T15:38:30;1.93;;;0.80;;
19002;SDS011;9634;51.040;13.794;2022-12-29T15:43:39;2.37;;;1.10;;
19002;SDS011;9634;51.040;13.794;2022-12-29T15:48:50;2.30;;;1.00;;
19002;SDS011;9634;51.040;13.794;2022-12-29T15:53:53;1.10;;;0.60;;
19002;SDS011;9634;51.040;13.794;2022-12-29T15:58:57;2.13;;;1.00;;
19002;SDS011;9634;51.040;13.794;2022-12-29T16:04:01;2.53;;;0.70;;
19002;SDS011;9634;51.040;13.794;2022-12-29T16:09:09;1.97;;;1.23;;
19002;SDS011;9634;51.040;13.794;2022-12-29T16:14:19;1.70;;;0.87;;
19002;SDS011;9634;51.040;13.794;2022-12-29T16:19:23;1.10;;;0.83;;
19002;SDS011;9634;51.040;13.794;2022-12-29T16:24:29;2.90;;;0.97;;
19002;SDS011;9634;51.040;13.794;2022-12-29T16:29:35;2.50;;;1.20;;
19002;SDS011;9634;51.040;13.794;2022-12-29T16:34:42;1.63;;;0.80;;
19002;SDS011;9634;51.040;13.794;2022-12-29T16:39:45;3.80;;;0.70;;
19002;SDS011;9634;51.040;13.794;2022-12-29T16:45:00;3.43;;;0.90;;
19002;SDS011;9634;51.040;13.794;2022-12-29T16:50:35;3.93;;;1.00;;
19002;SDS011;9634;51.040;13.794;2022-12-29T16:55:44;3.50;;;1.10;;
19002;SDS011;9634;51.040;13.794;2022-12-29T17:00:49;1.63;;;0.90;;
19002;SDS011;9634;51.040;13.794;2022-12-29T17:05:56;1.80;;;0.67;;
19002;SDS011;9634;51.040;13.794;2022-12-29T17:10:59;2.57;;;0.60;;
19002;SDS011;9634;51.040;13.794;2022-12-29T17:16:20;1.53;;;0.70;;
19002;SDS011;9634;51.040;13.794;2022-12-29T17:21:22;1.53;;;1.13;;
19002;SDS011;9634;51.040;13.794;2022-12-29T17:26:25;0.83;;;0.50;;
19002;SDS011;9634;51.040;13.794;2022-12-29T17:31:29;3.70;;;0.73;;
19002;SDS011;9634;51.040;13.794;2022-12-29T17:41:35;3.43;;;1.10;;
19002;SDS011;9634;51.040;13.794;2022-12-29T17:46:43;2.57;;;0.80;;
19002;SDS011;9634;51.040;13.794;2022-12-29T17:51:45;2.67;;;0.90;;
19002;SDS011;9634;51.040;13.794;2022-12-29T17:56:48;3.33;;;0.70;;
19002;SDS011;9634;51.040;13.794;2022-12-29T18:01:52;1.73;;;0.73;;
19002;SDS011;9634;51.040;13.794;2022-12-29T18:06:55;2.17;;;0.80;;
19002;SDS011;9634;51.040;13.794;2022-12-29T18:11:58;1.50;;;0.93;;
19002;SDS011;9634;51.040;13.794;2022-12-29T18:17:03;1.97;;;1.00;;
19002;SDS011;9634;51.040;13.794;2022-12-29T18:22:12;3.40;;;1.30;;
19002;SDS011;9634;51.040;13.794;2022-12-29T18:27:15;5.10;;;1.03;;
19002;SDS011;9634;51.040;13.794;2022-12-29T18:32:20;1.43;;;1.00;;
19002;SDS011;9634;51.040;13.794;2022-12-29T18:37:22;4.83;;;1.00;;
19002;SDS011;9634;51.040;13.794;2022-12-29T18:42:25;4.77;;;1.50;;
19002;SDS011;9634;51.040;13.794;2022-12-29T18:47:30;2.43;;;1.40;;
19002;SDS011;9634;51.040;13.794;2022-12-29T18:52:32;2.33;;;1.30;;
19002;SDS011;9634;51.040;13.794;2022-12-29T18:57:35;2.93;;;1.63;;
19002;SDS011;9634;51.040;13.794;2022-12-29T19:02:38;4.60;;;1.77;;
19002;SDS011;9634;51.040;13.794;2022-12-29T19:07:42;4.83;;;2.00;;
19002;SDS011;9634;51.040;13.794;2022-12-29T19:12:45;6.97;;;2.30;;
19002;SDS011;9634;51.040;13.794;2022-12-29T19:17:50;9.63;;;3.03;;
19002;SDS011;9634;51.040;13.794;2022-12-29T19:22:53;3.50;;;1.83;;
19002;SDS011;9634;51.040;13.794;2022-12-29T19:27:56;3.47;;;1.87;;
19002;SDS011;9634;51.040;13.794;2022-12-29T19:33:00;8.50;;;3.57;;
19002;SDS011;9634;51.040;13.794;2022-12-29T19:38:03;9.07;;;4.93;;
19002;SDS011;9634;51.040;13.794;2022-12-29T19:43:07;13.57;;;6.27;;
19002;SDS011;9634;51.040;13.794;2022-12-29T19:48:13;13.10;;;6.17;;
19002;SDS011;9634;51.040;13.794;2022-12-29T19:53:17;8.03;;;3.87;;
19002;SDS011;9634;51.040;13.794;2022-12-29T19:58:20;7.23;;;3.60;;
19002;SDS011;9634;51.040;13.794;2022-12-29T20:03:23;8.27;;;3.53;;
19002;SDS011;9634;51.040;13.794;2022-12-29T20:08:26;5.83;;;3.77;;
19002;SDS011;9634;51.040;13.794;2022-12-29T20:13:30;8.20;;;3.60;;
19002;SDS011;9634;51.040;13.794;2022-12-29T20:18:34;6.73;;;3.23;;
19002;SDS011;9634;51.040;13.794;2022-12-29T20:23:37;8.57;;;3.70;;
19002;SDS011;9634;51.040;13.794;2022-12-29T20:28:40;6.00;;;2.93;;
19002;SDS011;9634;51.040;13.794;2022-12-29T20:33:44;5.30;;;2.93;;
19002;SDS011;9634;51.040;13.794;2022-12-29T20:38:47;6.10;;;3.00;;
19002;SDS011;9634;51.040;13.794;2022-12-29T20:43:51;5.67;;;3.23;;
19002;SDS011;9634;51.040;13.794;2022-12-29T20:48:55;6.43;;;3.40;;
19002;SDS011;9634;51.040;13.794;2022-12-29T20:53:58;8.20;;;3.63;;
19002;SDS011;9634;51.040;13.794;2022-12-29T20:59:00;4.53;;;2.30;;
19002;SDS011;9634;51.040;13.794;2022-12-29T21:04:04;3.40;;;1.60;;
19002;SDS011;9634;51.040;13.794;2022-12-29T21:09:10;2.60;;;1.50;;
19002;SDS011;9634;51.040;13.794;2022-12-29T21:14:12;1.87;;;1.17;;
19002;SDS011;9634;51.040;13.794;2022-12-29T21:19:16;3.23;;;1.20;;
19002;SDS011;9634;51.040;13.794;2022-12-29T21:24:19;3.07;;;1.10;;
19002;SDS011;9634;51.040;13.794;2022-12-29T21:29:24;1.53;;;0.70;;
19002;SDS011;9634;51.040;13.794;2022-12-29T21:34:28;1.53;;;0.50;;
19002;SDS011;9634;51.040;13.794;2022-12-29T21:39:31;1.87;;;0.50;;
19002;SDS011;9634;51.040;13.794;2022-12-29T21:44:34;1.10;;;0.60;;
19002;SDS011;9634;51.040;13.794;2022-12-29T21:49:56;1.63;;;0.80;;
19002;SDS011;9634;51.040;13.794;2022-12-29T21:54:59;2.87;;;0.70;;
19002;SDS011;9634;51.040;13.794;2022-12-29T22:00:02;1.60;;;0.60;;
19002;SDS011;9634;51.040;13.794;2022-12-29T22:05:24;2.63;;;0.70;;
19002;SDS011;9634;51.040;13.794;2022-12-29T22:10:44;1.10;;;0.53;;
19002;SDS011;9634;51.040;13.794;2022-12-29T22:16:05;3.50;;;1.00;;
19002;SDS011;9634;51.040;13.794;2022-12-29T22:21:11;4.00;;;0.70;;
19002;SDS011;9634;51.040;13.794;2022-12-29T22:26:14;1.40;;;0.40;;
19002;SDS011;9634;51.040;13.794;2022-12-29T22:31:19;3.93;;;1.03;;
19002;SDS011;9634;51.040;13.794;2022-12-29T22:36:28;1.43;;;0.60;;
19002;SDS011;9634;51.040;13.794;2022-12-29T22:41:31;1.40;;;0.87;;
19002;SDS011;9634;51.040;13.794;2022-12-29T22:46:34;2.50;;;0.77;;
19002;SDS011;9634;51.040;13.794;2022-12-29T22:51:38;2.50;;;0.80;;
19002;SDS011;9634;51.040;13.794;2022-12-29T22:56:41;3.90;;;0.70;;
19002;SDS011;9634;51.040;13.794;2022-12-29T23:01:44;1.30;;;0.60;;
19002;SDS011;9634;51.040;13.794;2022-12-29T23:06:48;3.20;;;0.77;;
19002;SDS011;9634;51.040;13.794;2022-12-29T23:11:51;2.50;;;0.60;;
19002;SDS011;9634;51.040;13.794;2022-12-29T23:16:54;1.80;;;0.70;;
19002;SDS011;9634;51.040;13.794;2022-12-29T23:21:58;2.53;;;0.80;;
19002;SDS011;9634;51.040;13.794;2022-12-29T23:27:00;3.93;;;0.80;;
19002;SDS011;9634;51.040;13.794;2022-12-29T23:32:03;3.63;;;0.50;;
19002;SDS011;9634;51.040;13.794;2022-12-29T23:37:06;3.03;;;0.80;;
19002;SDS011;9634;51.040;13.794;2022-12-29T23:42:09;5.10;;;0.90;;
19002;SDS011;9634;51.040;13.794;2022-12-29T23:47:12;4.27;;;0.90;;
19002;SDS011;9634;51.040;13.794;2022-12-29T23:52:16;4.00;;;0.97;;
19002;SDS011;9634;51.040;13.794;2022-12-29T23:57:22;1.97;;;0.70;;
